KTVYKBMC

Guest
Details From KTVY - Bolinder Field Tooele Valley
To KBMC - Brigham City
Flight Number -
Tags generated
Created
Modified
Stats Distance 58 nm / 107 km
Max Altitude 7,000 ft / 2,134 m
Waypoints 3
Social Downloads 0
Likes 0
Share VATSIM

Download

Looking for another format? Having issues loading an existing format? Contact us
Advertisement - Login to hide

Notes

Basic altitude profile: - Ascent Rate: 2500ft/min - Ascent Speed: 250kts - Cruise Altitude: 35000ft - Cruise Speed: 420kts - Descent Rate: 1500ft/min - Descent Speed: 250kts Options: - Use NATs: yes - Use PACOTS: yes - Use low airways: yes - Use high airways: yes

Route

KTVY JOSIF KBMC

ID Type Via Altitude Latitude Longitude Leg Dist Tot Dist Heading (true) Name
O KTVY APT - 0 ft / 0 m 40.61227˚ -112.35072˚ - 0 nm - Bolinder Field Tooele Valley
JOSIF FIX - 7,000 ft / 2,134 m 41.02271˚ -112.23755˚ 25 nm 25 nm 12° / 12° -
O KBMC APT - 0 ft / 0 m 41.55239˚ -112.06222˚ 32 nm 57 nm 14° / 14° Brigham City

Altitude Profile

Advertisement - Login to hide

KTVY

Details ICAO KTVY
Name Bolinder Field Tooele Valley
Region United States
Timezone America/Denver (UTC-7.0)
Stats Elevation 4,321 ft / 1,317 m (AMSL)
Location 40.612268° -112.350716°
Runways 1
Magnetic Variation 11.557° E

METAR

KTVY 180935Z AUTO 19014KT 10SM CLR M04/M06 A3028 RMK AO2

Decode

TAF

Not found

Departure Runways

ID Width Length Bearing (true) Bearing (mag) Surface Threshold Offset Overrun Length
17 79 ft / 24 m 5,433 ft / 1,656 m 179.15° 167.59° Asphalt 0 ft / 0 m 0 ft / 0 m
35 79 ft / 24 m 5,433 ft / 1,656 m 359.15° 347.59° Asphalt 0 ft / 0 m 0 ft / 0 m

KBMC

Details ICAO KBMC (BMC)
Name Brigham City
Region United States
Timezone America/Denver (UTC-7.0)
Stats Elevation 4,229 ft / 1,289 m (AMSL)
Location 41.552394° -112.062217°
Runways 1
Magnetic Variation 11.603° E

METAR

KBMC 180935Z AUTO 14004KT 10SM BKN060 OVC070 M01/M05 A3028 RMK AO1 T10141047

Decode

TAF

Not found

Destination Runways

ID Width Length Bearing (true) Bearing (mag) Surface Threshold Offset Overrun Length
16 98 ft / 30 m 7,511 ft / 2,289 m 179.50° 167.90° Asphalt 0 ft / 0 m 0 ft / 0 m
34 98 ft / 30 m 7,511 ft / 2,289 m 359.50° 347.90° Asphalt 0 ft / 0 m 0 ft / 0 m